Time;durP1;ratioP1;P1;durP2;ratioP2;P2;SDS_P1;SDS_P2;PMS_P1;PMS_P2;Temp;Humidity;BMP_temperature;BMP_pressure;BME280_temperature;BME280_humidity;BME280_pressure;Samples;Min_cycle;Max_cycle;Signal;HPM_P1;HPM_P2
2022/09/22 00:01:18;;;;;;;1.45;0.77;;;;;;;13.83;49.67;100744.13;5111327;28;20093;-59
2022/09/22 00:03:48;;;;;;;2.28;0.82;;;;;;;13.82;49.64;100745.88;5109904;28;20081;-60
2022/09/22 00:06:20;;;;;;;1.20;0.60;;;;;;;13.81;49.46;100749.47;5109395;28;20061;-61
2022/09/22 00:08:50;;;;;;;2.88;1.00;;;;;;;13.80;49.56;100745.97;5109453;28;20047;-60
2022/09/22 00:11:27;;;;;;;3.70;0.95;;;;;;;13.78;49.68;100747.88;5109204;28;20040;-59
2022/09/22 00:13:55;;;;;;;2.13;0.70;;;;;;;13.78;49.64;100739.06;5110947;28;20051;-60
2022/09/22 00:16:24;;;;;;;1.90;0.80;;;;;;;13.75;49.64;100740.09;5110760;28;20082;-61
2022/09/22 00:18:51;;;;;;;1.92;0.68;;;;;;;13.74;49.35;100745.44;5109514;28;20089;-59
2022/09/22 00:21:20;;;;;;;1.67;0.73;;;;;;;13.71;49.72;100740.34;5110593;28;20051;-59
2022/09/22 00:23:47;;;;;;;2.55;0.90;;;;;;;13.66;49.42;100738.81;5111205;28;20447;-62
2022/09/22 00:26:17;;;;;;;2.88;0.75;;;;;;;13.64;49.57;100731.91;5110811;28;20288;-59
2022/09/22 00:28:46;;;;;;;2.28;0.95;;;;;;;13.61;49.59;100735.53;5110732;28;20138;-60
2022/09/22 00:31:22;;;;;;;0.70;0.57;;;;;;;13.56;50.27;100737.56;5110578;28;20059;-61
2022/09/22 00:33:51;;;;;;;2.78;0.77;;;;;;;13.55;49.79;100735.88;5109355;28;20077;-61
2022/09/22 00:36:20;;;;;;;2.72;0.73;;;;;;;13.53;49.64;100737.75;5110900;28;20055;-60
2022/09/22 00:38:50;;;;;;;2.50;0.70;;;;;;;13.50;49.78;100732.63;5110648;28;20075;-59
2022/09/22 00:41:39;;;;;;;3.60;0.98;;;;;;;13.41;50.39;100734.78;5110610;28;20035;-59
2022/09/22 00:44:57;;;;;;;3.75;0.85;;;;;;;13.39;50.51;100728.72;5110409;28;20092;-60
2022/09/22 00:47:35;;;;;;;2.00;0.90;;;;;;;13.39;50.67;100728.72;5097938;28;20043;-60
2022/09/22 00:50:10;;;;;;;3.08;0.50;;;;;;;13.38;50.67;100732.31;5110419;28;20044;-60
2022/09/22 00:52:43;;;;;;;2.53;0.93;;;;;;;13.37;50.40;100729.75;5109488;28;20075;-59
2022/09/22 00:55:14;;;;;;;1.45;0.75;;;;;;;13.36;50.19;100728.91;5110810;28;20055;-60
2022/09/22 00:57:43;;;;;;;4.63;1.10;;;;;;;13.36;50.04;100726.25;5110484;28;20510;-61
2022/09/22 01:00:10;;;;;;;2.35;0.70;;;;;;;13.35;50.19;100724.53;5108996;28;20476;-60
2022/09/22 01:02:37;;;;;;;1.95;0.60;;;;;;;13.34;50.16;100717.53;5110229;28;20146;-60
2022/09/22 01:05:05;;;;;;;1.92;0.73;;;;;;;13.34;50.22;100714.91;5109079;28;20134;-60
2022/09/22 01:07:32;;;;;;;5.20;0.85;;;;;;;13.35;50.11;100713.13;5110513;28;20159;-59
2022/09/22 01:09:59;;;;;;;2.92;1.00;;;;;;;13.33;50.36;100718.47;5110367;28;20104;-60
2022/09/22 01:12:28;;;;;;;3.33;0.75;;;;;;;13.32;50.55;100707.97;5110416;28;20454;-60
2022/09/22 01:15:14;;;;;;;3.15;0.60;;;;;;;13.32;50.91;100713.28;5108949;28;20095;-60
2022/09/22 01:17:50;;;;;;;1.55;0.65;;;;;;;13.33;50.51;100704.41;5110555;28;20189;-60
2022/09/22 01:20:40;;;;;;;8.98;1.30;;;;;;;13.31;50.56;100703.63;5114083;28;20062;-60
2022/09/22 01:23:51;;;;;;;3.20;0.90;;;;;;;13.29;50.49;100698.44;5114190;28;20097;-59
2022/09/22 01:26:53;;;;;;;1.90;0.85;;;;;;;13.29;50.25;100696.66;5108125;28;20043;-59
2022/09/22 01:29:44;;;;;;;2.55;0.85;;;;;;;13.27;50.52;100695.84;5093162;28;20075;-60
2022/09/22 01:32:40;;;;;;;2.50;0.68;;;;;;;13.24;50.74;100703.09;5113660;28;20538;-60
2022/09/22 01:35:31;;;;;;;5.80;0.65;;;;;;;13.16;50.62;100692.94;5113813;28;20079;-61
2022/09/22 01:38:08;;;;;;;3.08;0.70;;;;;;;13.15;50.59;100689.44;5113793;28;20071;-62
2022/09/22 01:41:01;;;;;;;3.60;0.63;;;;;;;13.08;50.76;100693.34;5112665;28;20139;-59
2022/09/22 01:43:27;;;;;;;1.45;0.70;;;;;;;13.10;50.06;100699.41;5112363;28;20044;-60
2022/09/22 01:45:54;;;;;;;0.98;0.60;;;;;;;13.08;50.39;100695.97;5113671;28;20086;-60
2022/09/22 01:48:30;;;;;;;2.10;0.80;;;;;;;13.02;51.15;100689.22;5146328;27;20096;-61
2022/09/22 01:51:07;;;;;;;2.03;0.82;;;;;;;13.03;51.04;100684.78;5113725;28;20074;-61
2022/09/22 01:53:42;;;;;;;3.97;0.90;;;;;;;13.02;51.27;100693.66;5112166;28;20075;-61
2022/09/22 01:56:13;;;;;;;3.05;0.88;;;;;;;13.02;50.91;100691.84;5113546;28;20124;-61
2022/09/22 01:58:50;;;;;;;3.65;0.70;;;;;;;13.01;51.45;100684.03;5113236;27;20044;-59
2022/09/22 02:01:24;;;;;;;3.83;0.98;;;;;;;13.00;51.39;100687.59;5113374;28;20074;-60
2022/09/22 02:03:51;;;;;;;2.08;0.70;;;;;;;13.00;50.89;100682.31;5113110;28;20051;-60
2022/09/22 02:06:24;;;;;;;3.13;0.85;;;;;;;12.97;51.51;100677.19;5113315;28;20079;-61
2022/09/22 02:09:00;;;;;;;1.90;0.65;;;;;;;12.94;51.75;100669.44;5111785;28;20048;-61
2022/09/22 02:11:26;;;;;;;2.97;0.70;;;;;;;12.96;50.95;100672.81;5113136;28;20074;-60
2022/09/22 02:13:53;;;;;;;3.05;0.80;;;;;;;12.94;50.78;100677.34;5113085;28;20098;-60
2022/09/22 02:16:22;;;;;;;2.30;0.70;;;;;;;12.93;51.09;100665.09;5113185;28;20036;-59
2022/09/22 02:18:59;;;;;;;1.67;0.60;;;;;;;12.89;51.82;100667.88;5111671;28;20052;-58
2022/09/22 02:21:39;;;;;;;2.25;0.80;;;;;;;12.92;51.22;100673.91;5112896;28;20043;-60
2022/09/22 02:24:06;;;;;;;2.92;1.02;;;;;;;12.90;51.25;100668.75;5112599;28;20094;-61
2022/09/22 02:26:35;;;;;;;3.72;0.63;;;;;;;12.87;51.75;100661.81;5113090;28;20096;-59
2022/09/22 02:29:09;;;;;;;3.33;0.55;;;;;;;12.86;52.30;100667.19;5112457;28;20048;-60
2022/09/22 02:31:37;;;;;;;7.55;1.08;;;;;;;12.88;51.67;100668.81;5112036;28;20482;-59
2022/09/22 02:34:05;;;;;;;2.42;0.70;;;;;;;12.87;51.35;100667.09;5112504;28;20117;-60
2022/09/22 02:36:37;;;;;;;3.10;0.80;;;;;;;12.88;51.64;100660.03;5112540;28;20063;-61
2022/09/22 02:39:38;;;;;;;3.27;0.80;;;;;;;12.83;52.06;100660.28;5112889;28;20435;-61
2022/09/22 02:42:10;;;;;;;3.45;0.70;;;;;;;12.88;51.54;100655.59;5112525;28;20315;-60
2022/09/22 02:44:47;;;;;;;3.13;0.90;;;;;;;12.84;52.12;100646.13;5112522;28;20043;-59
2022/09/22 02:47:35;;;;;;;2.55;0.70;;;;;;;12.83;52.00;100649.72;5112404;28;20047;-60
2022/09/22 02:50:07;;;;;;;1.50;0.77;;;;;;;12.86;51.61;100638.13;5110980;28;20073;-60
2022/09/22 02:52:35;;;;;;;2.17;0.90;;;;;;;12.85;51.30;100646.97;5112384;28;20043;-60
2022/09/22 02:55:03;;;;;;;0.98;0.57;;;;;;;12.83;51.25;100639.16;5112078;28;20129;-61
2022/09/22 02:57:29;;;;;;;2.72;0.88;;;;;;;12.83;51.44;100644.44;5112011;28;20047;-60
2022/09/22 02:59:56;;;;;;;2.45;0.63;;;;;;;12.84;51.38;100642.63;5111947;28;20079;-59
2022/09/22 03:02:22;;;;;;;2.63;0.80;;;;;;;12.81;51.52;100641.00;5112340;28;20074;-61
2022/09/22 03:04:50;;;;;;;2.58;0.90;;;;;;;12.80;51.64;100635.78;5112106;28;20098;-61
2022/09/22 03:07:17;;;;;;;2.10;0.77;;;;;;;12.79;51.52;100636.72;5112021;28;20035;-59
2022/09/22 03:09:44;;;;;;;2.38;0.77;;;;;;;12.79;51.37;100637.59;5110479;28;20105;-60
2022/09/22 03:12:10;;;;;;;1.40;0.90;;;;;;;12.78;51.73;100643.78;5111598;28;20079;-59
2022/09/22 03:14:37;;;;;;;2.28;0.70;;;;;;;12.78;51.87;100641.16;5112027;28;20448;-60
2022/09/22 03:17:03;;;;;;;3.30;1.00;;;;;;;12.78;52.11;100641.16;5110446;28;20078;-59
2022/09/22 03:19:30;;;;;;;8.85;1.00;;;;;;;12.78;51.68;100635.88;5111726;28;20387;-60
2022/09/22 03:21:56;;;;;;;3.00;1.00;;;;;;;12.77;51.84;100635.03;5111927;28;20082;-59
2022/09/22 03:24:23;;;;;;;2.72;0.80;;;;;;;12.79;51.80;100642.88;5111815;28;20147;-60
2022/09/22 03:26:49;;;;;;;3.78;1.23;;;;;;;12.78;51.90;100630.59;5112148;28;20047;-60
2022/09/22 03:29:16;;;;;;;1.88;0.73;;;;;;;12.77;51.79;100627.09;5111782;28;20043;-60
2022/09/22 03:31:43;;;;;;;1.52;0.57;;;;;;;12.77;52.12;100626.25;5111534;28;20069;-59
2022/09/22 03:34:09;;;;;;;3.03;0.60;;;;;;;12.75;51.98;100620.19;5111533;28;20126;-60
2022/09/22 03:36:36;;;;;;;2.67;0.88;;;;;;;12.73;51.90;100624.69;5111580;28;20051;-59
2022/09/22 03:39:02;;;;;;;1.85;0.80;;;;;;;12.71;52.19;100624.75;5111797;28;20126;-59
2022/09/22 03:41:30;;;;;;;1.30;0.80;;;;;;;12.70;51.87;100627.47;5111224;28;20079;-59
2022/09/22 03:43:57;;;;;;;2.92;0.80;;;;;;;12.69;51.84;100625.78;5111798;28;20069;-61
2022/09/22 03:46:24;;;;;;;1.92;0.70;;;;;;;12.67;51.77;100617.94;5109987;28;20047;-59
2022/09/22 03:48:51;;;;;;;4.38;0.85;;;;;;;12.65;51.87;100617.16;5110088;28;20138;-59
2022/09/22 03:51:18;;;;;;;2.17;0.90;;;;;;;12.64;52.07;100618.94;5111308;28;20094;-60
2022/09/22 03:53:45;;;;;;;2.20;0.70;;;;;;;12.61;51.93;100616.50;5111200;28;20094;-59
2022/09/22 03:56:14;;;;;;;1.40;0.80;;;;;;;12.60;52.08;100617.41;5111292;28;20071;-60
2022/09/22 03:58:41;;;;;;;2.00;0.63;;;;;;;12.58;51.87;100611.34;5110000;28;20043;-59
2022/09/22 04:01:09;;;;;;;2.60;0.70;;;;;;;12.56;51.77;100615.00;5111304;28;20518;-59
2022/09/22 04:03:37;;;;;;;1.30;0.60;;;;;;;12.53;51.67;100608.09;5111226;28;20051;-60
2022/09/22 04:06:04;;;;;;;3.70;0.98;;;;;;;12.51;51.76;100607.31;5111097;28;20098;-59
2022/09/22 04:08:30;;;;;;;4.72;0.75;;;;;;;12.48;51.79;100608.31;5111052;28;20134;-60
2022/09/22 04:10:58;;;;;;;3.42;0.70;;;;;;;12.46;51.74;100611.97;5111089;28;20048;-59
2022/09/22 04:13:25;;;;;;;0.88;0.57;;;;;;;12.43;51.85;100599.78;5111010;28;20078;-59
2022/09/22 04:15:52;;;;;;;1.17;0.52;;;;;;;12.40;51.89;100601.75;5111080;28;20071;-59
2022/09/22 04:18:18;;;;;;;1.88;0.70;;;;;;;12.36;51.80;100601.91;5110855;28;20067;-60
2022/09/22 04:20:45;;;;;;;1.00;0.60;;;;;;;12.33;51.97;100598.53;5110914;28;20120;-59
2022/09/22 04:23:14;;;;;;;1.85;1.00;;;;;;;12.31;52.16;100600.41;5110799;28;20078;-60
2022/09/22 04:25:40;;;;;;;1.00;0.60;;;;;;;12.28;52.21;100597.91;5109522;28;20052;-60
2022/09/22 04:28:07;;;;;;;4.00;0.70;;;;;;;12.25;52.21;100591.00;5110679;28;20082;-59
2022/09/22 04:30:34;;;;;;;2.22;0.60;;;;;;;12.23;52.18;100591.09;5111040;28;20048;-59
2022/09/22 04:33:01;;;;;;;1.60;0.77;;;;;;;12.21;52.51;100590.34;5110624;28;20505;-60
2022/09/22 04:35:28;;;;;;;2.50;0.88;;;;;;;12.20;52.24;100595.69;5111187;28;20083;-59
2022/09/22 04:37:56;;;;;;;3.30;0.77;;;;;;;12.18;52.13;100601.03;5109672;28;20040;-59
2022/09/22 04:40:23;;;;;;;3.20;1.00;;;;;;;12.17;52.38;100601.97;5110774;28;20047;-60
2022/09/22 04:42:50;;;;;;;3.42;0.60;;;;;;;12.15;52.45;100595.91;5109547;28;20479;-59
2022/09/22 04:45:17;;;;;;;2.45;0.65;;;;;;;12.14;52.00;100590.72;5110817;28;20052;-60
2022/09/22 04:47:48;;;;;;;1.95;0.70;;;;;;;12.11;53.11;100597.84;5110591;28;20524;-59
2022/09/22 04:50:16;;;;;;;1.35;0.80;;;;;;;12.11;52.50;100592.56;5109422;28;20070;-61
2022/09/22 04:52:45;;;;;;;0.57;0.57;;;;;;;12.11;52.63;100589.06;5110849;28;20044;-60
2022/09/22 04:55:12;;;;;;;2.15;0.65;;;;;;;12.10;52.58;100585.59;5114478;28;20635;-59
2022/09/22 04:57:38;;;;;;;2.83;0.70;;;;;;;12.10;52.54;100593.50;5114855;28;20079;-58
2022/09/22 05:00:05;;;;;;;1.40;0.60;;;;;;;12.11;52.51;100591.69;5114427;28;20079;-61
2022/09/22 05:02:33;;;;;;;4.00;0.80;;;;;;;12.09;52.75;100586.53;5114848;28;20162;-58
2022/09/22 05:05:01;;;;;;;3.17;0.73;;;;;;;12.10;52.37;100590.00;5114634;27;20056;-60
2022/09/22 05:07:28;;;;;;;2.97;0.77;;;;;;;12.09;52.45;100591.81;5113363;28;20472;-59
2022/09/22 05:09:54;;;;;;;1.45;0.70;;;;;;;12.09;52.44;100594.44;5114210;28;20520;-59
2022/09/22 05:12:21;;;;;;;1.70;0.47;;;;;;;12.08;52.52;100590.06;5114491;28;20082;-59
2022/09/22 05:14:47;;;;;;;2.13;0.75;;;;;;;12.08;52.48;100591.88;5114086;28;20039;-61
2022/09/22 05:17:14;;;;;;;1.08;0.50;;;;;;;12.07;52.55;100593.66;5114207;28;20139;-59
2022/09/22 05:19:40;;;;;;;0.95;0.70;;;;;;;12.08;52.42;100591.88;5113956;28;20086;-60
2022/09/22 05:22:07;;;;;;;1.38;0.82;;;;;;;12.08;52.65;100597.16;5114526;28;20048;-59
2022/09/22 05:24:34;;;;;;;0.80;0.52;;;;;;;12.08;52.65;100595.34;5113758;28;20052;-59
2022/09/22 05:27:00;;;;;;;1.60;0.65;;;;;;;12.07;52.67;100593.66;5114046;28;20138;-60
2022/09/22 05:29:27;;;;;;;1.48;0.80;;;;;;;12.06;52.70;100591.94;5113638;28;20138;-60
2022/09/22 05:31:53;;;;;;;1.42;0.50;;;;;;;12.05;52.66;100595.53;5113176;28;20079;-60
2022/09/22 05:34:20;;;;;;;4.05;0.80;;;;;;;12.04;52.68;100599.03;5112674;28;20530;-59
2022/09/22 05:36:47;;;;;;;0.80;0.60;;;;;;;12.03;52.57;100604.41;5113960;28;20083;-60
2022/09/22 05:39:13;;;;;;;1.83;0.63;;;;;;;12.01;52.72;100607.13;5113705;28;20079;-58
2022/09/22 05:41:39;;;;;;;2.35;0.65;;;;;;;11.99;52.63;100607.19;5113784;28;20124;-59
2022/09/22 05:44:06;;;;;;;1.48;0.50;;;;;;;11.99;52.79;100612.47;5113558;28;20083;-59
2022/09/22 05:46:33;;;;;;;4.35;0.93;;;;;;;11.98;53.03;100605.50;5113734;27;20453;-60
2022/09/22 05:48:59;;;;;;;3.90;0.70;;;;;;;11.99;53.08;100611.63;5113404;28;20082;-60
2022/09/22 05:51:26;;;;;;;2.15;0.57;;;;;;;12.00;53.23;100608.03;5113449;28;20093;-59
2022/09/22 05:53:52;;;;;;;1.95;0.80;;;;;;;12.02;53.35;100610.59;5113509;28;20075;-60
2022/09/22 05:56:19;;;;;;;5.13;0.93;;;;;;;12.03;53.31;100614.97;5113425;28;20077;-60
2022/09/22 05:58:46;;;;;;;2.17;0.80;;;;;;;12.05;53.45;100614.00;5113237;28;20079;-60
2022/09/22 06:01:13;;;;;;;2.05;0.70;;;;;;;12.08;53.75;100611.19;5113599;27;20132;-59
2022/09/22 06:03:40;;;;;;;1.27;0.65;;;;;;;12.11;53.73;100610.19;5113594;28;20407;-61
2022/09/22 06:06:07;;;;;;;4.53;0.65;;;;;;;12.13;53.62;100616.25;5113007;28;20518;-60
2022/09/22 06:08:33;;;;;;;2.50;0.73;;;;;;;12.17;53.60;100611.66;5113096;28;20089;-60
2022/09/22 06:11:00;;;;;;;1.85;0.77;;;;;;;12.19;53.66;100617.72;5112356;28;20043;-60
2022/09/22 06:13:26;;;;;;;2.53;0.88;;;;;;;12.22;53.79;100614.91;5112764;28;20052;-59
2022/09/22 06:15:53;;;;;;;3.65;0.93;;;;;;;12.24;53.79;100613.06;5113335;28;20093;-59
2022/09/22 06:18:19;;;;;;;4.55;1.30;;;;;;;12.26;53.83;100613.84;5112960;28;20086;-58
2022/09/22 06:20:51;;;;;;;3.63;0.80;;;;;;;12.29;53.87;100618.97;5112717;28;20073;-59
2022/09/22 06:23:17;;;;;;;2.92;0.90;;;;;;;12.32;53.92;100608.25;5113386;28;20359;-59
2022/09/22 06:25:44;;;;;;;2.20;1.15;;;;;;;12.35;54.20;100615.16;5112910;28;20075;-58
2022/09/22 06:28:13;;;;;;;1.90;0.70;;;;;;;12.39;54.16;100611.44;5112969;28;20127;-58
2022/09/22 06:30:40;;;;;;;3.90;0.60;;;;;;;12.43;54.32;100610.34;5112443;28;20126;-60
2022/09/22 06:33:09;;;;;;;2.90;0.80;;;;;;;12.49;54.13;100611.84;5112780;28;20051;-59
2022/09/22 06:35:38;;;;;;;2.10;0.80;;;;;;;12.53;54.18;100607.25;5112869;28;20048;-59
2022/09/22 06:38:06;;;;;;;4.32;0.80;;;;;;;12.56;54.24;100609.72;5111091;28;20083;-61
2022/09/22 06:40:37;;;;;;;7.40;1.20;;;;;;;12.62;54.54;100604.97;5111642;28;20490;-59
2022/09/22 06:43:11;;;;;;;7.63;0.95;;;;;;;12.67;54.34;100607.38;5112169;28;20056;-60
2022/09/22 06:45:39;;;;;;;1.30;0.70;;;;;;;12.72;54.27;100604.50;5112731;28;20498;-59
2022/09/22 06:48:06;;;;;;;4.88;0.93;;;;;;;12.76;54.49;100598.94;5112272;28;20047;-60
2022/09/22 06:50:37;;;;;;;2.60;1.10;;;;;;;12.82;54.31;100610.16;5111141;28;20581;-59
2022/09/22 06:53:10;;;;;;;7.15;0.90;;;;;;;12.87;54.35;100605.47;5112217;28;20052;-61
2022/09/22 06:55:37;;;;;;;5.07;0.60;;;;;;;12.94;54.28;100606.00;5112700;28;20096;-60
2022/09/22 06:58:03;;;;;;;1.73;0.60;;;;;;;12.98;54.44;100605.75;5112361;28;20138;-60
2022/09/22 07:00:31;;;;;;;2.30;0.80;;;;;;;13.04;54.34;100604.56;5110311;28;20617;-59
2022/09/22 07:03:19;;;;;;;3.20;0.82;;;;;;;13.05;54.60;100601.00;5111829;28;20044;-59
2022/09/22 07:05:59;;;;;;;2.70;1.15;;;;;;;13.13;54.26;100601.41;5111230;28;20067;-61
2022/09/22 07:08:28;;;;;;;3.10;1.17;;;;;;;13.23;53.90;100608.88;5111984;28;20137;-59
2022/09/22 07:11:07;;;;;;;3.40;1.02;;;;;;;13.27;54.15;100610.41;5110904;28;20471;-60
2022/09/22 07:13:37;;;;;;;3.95;0.98;;;;;;;13.35;53.82;100610.00;5110446;28;20043;-59
2022/09/22 07:16:10;;;;;;;3.88;1.40;;;;;;;13.39;54.07;100604.44;5110231;28;20100;-60
2022/09/22 07:18:43;;;;;;;3.72;1.00;;;;;;;13.46;53.82;100602.28;5110481;28;20108;-59
2022/09/22 07:21:22;;;;;;;2.50;0.90;;;;;;;13.52;53.92;100602.00;5111937;28;20051;-59
2022/09/22 07:23:50;;;;;;;2.45;0.80;;;;;;;13.60;53.66;100595.44;5111814;28;20092;-60
2022/09/22 07:26:20;;;;;;;2.22;0.95;;;;;;;13.65;53.56;100602.16;5110349;28;20076;-59
2022/09/22 07:28:50;;;;;;;1.73;0.80;;;;;;;13.73;53.41;100604.38;5111351;28;20134;-61
2022/09/22 07:31:17;;;;;;;3.28;1.00;;;;;;;13.81;53.59;100603.94;5110531;28;20075;-60
2022/09/22 07:33:45;;;;;;;1.75;0.80;;;;;;;13.87;53.41;100602.75;5111433;28;20055;-59
2022/09/22 07:36:20;;;;;;;3.75;0.95;;;;;;;13.91;53.58;100609.56;5110272;28;20086;-59
2022/09/22 07:38:49;;;;;;;2.25;1.10;;;;;;;13.99;53.35;100607.34;5111246;28;20075;-60
2022/09/22 07:41:21;;;;;;;3.65;1.00;;;;;;;14.03;53.22;100608.88;5111712;28;20088;-59
2022/09/22 07:43:50;;;;;;;3.35;1.00;;;;;;;14.11;53.11;100602.25;5110243;28;20083;-59
2022/09/22 07:46:16;;;;;;;2.33;0.82;;;;;;;14.17;52.84;100610.69;5111445;28;20205;-60
2022/09/22 07:48:46;;;;;;;2.83;0.95;;;;;;;14.23;52.72;100609.47;5111174;28;20048;-59
2022/09/22 07:51:18;;;;;;;3.22;1.00;;;;;;;14.28;52.87;100598.63;5108815;28;20058;-59
2022/09/22 07:53:47;;;;;;;5.18;1.05;;;;;;;14.33;53.13;100609.78;5110158;28;20060;-60
2022/09/22 07:56:16;;;;;;;2.35;0.98;;;;;;;14.38;52.58;100602.41;5111391;28;20083;-58
2022/09/22 07:58:52;;;;;;;2.78;1.13;;;;;;;14.41;52.88;100607.53;5111225;28;20051;-59
2022/09/22 08:01:21;;;;;;;4.03;1.27;;;;;;;14.50;52.43;100606.13;5111245;28;20051;-59
2022/09/22 08:03:48;;;;;;;3.28;0.90;;;;;;;14.56;52.67;100602.25;5109695;28;20457;-60
2022/09/22 08:06:15;;;;;;;5.65;1.00;;;;;;;14.62;52.29;100607.22;5111007;28;20548;-58
2022/09/22 08:08:47;;;;;;;2.10;1.00;;;;;;;14.67;52.22;100599.81;5110920;28;20151;-60
2022/09/22 08:11:16;;;;;;;3.80;1.13;;;;;;;14.73;52.11;100607.38;5109701;28;20104;-60
2022/09/22 08:13:52;;;;;;;7.20;1.50;;;;;;;14.80;52.18;100604.41;5110813;28;20051;-59
2022/09/22 08:16:23;;;;;;;3.03;1.00;;;;;;;14.88;51.87;100599.47;5109611;28;20094;-60
2022/09/22 08:18:55;;;;;;;4.03;1.30;;;;;;;14.94;51.90;100601.75;5109613;28;20086;-61
2022/09/22 08:21:25;;;;;;;4.57;1.73;;;;;;;15.01;52.07;100609.31;5110779;28;20549;-60
2022/09/22 08:23:53;;;;;;;2.97;1.35;;;;;;;15.08;51.97;100608.00;5110990;28;20130;-59
2022/09/22 08:26:20;;;;;;;2.28;1.30;;;;;;;15.15;51.72;100611.97;5109406;28;20075;-60
2022/09/22 08:28:54;;;;;;;5.53;1.60;;;;;;;15.18;51.69;100606.47;5114036;28;20059;-60
2022/09/22 08:31:23;;;;;;;2.33;1.40;;;;;;;15.28;51.69;100600.59;5115716;28;20104;-59
2022/09/22 08:33:53;;;;;;;4.18;1.35;;;;;;;15.34;51.75;100602.84;5115052;28;20400;-60
2022/09/22 08:36:22;;;;;;;2.70;1.30;;;;;;;15.40;51.63;100601.59;5115130;28;20134;-60
2022/09/22 08:38:49;;;;;;;3.92;1.50;;;;;;;15.46;51.48;100603.84;5113652;28;20051;-60
2022/09/22 08:41:19;;;;;;;5.13;1.55;;;;;;;15.53;51.56;100606.97;5114853;28;20073;-59
2022/09/22 08:43:51;;;;;;;3.83;1.67;;;;;;;15.59;51.34;100611.91;5115001;28;20495;-59
2022/09/22 08:46:18;;;;;;;4.78;2.08;;;;;;;15.66;51.30;100605.22;5115136;28;20087;-60
2022/09/22 08:51:50;;;;;;;4.75;1.63;;;;;;;15.76;51.10;100609.00;5114695;28;20056;-60
2022/09/22 08:54:19;;;;;;;4.75;1.75;;;;;;;15.85;50.95;100615.50;5114888;28;20052;-59
2022/09/22 08:56:45;;;;;;;5.50;2.13;;;;;;;15.92;50.85;100609.78;5114640;28;20047;-59
2022/09/22 08:59:22;;;;;;;2.95;1.77;;;;;;;15.94;51.08;100608.78;5114453;28;20303;-61
2022/09/22 09:02:13;;;;;;;3.95;1.65;;;;;;;16.00;51.12;100611.00;5113334;28;20082;-59
2022/09/22 09:04:59;;;;;;;6.28;1.90;;;;;;;16.06;50.94;100607.09;5114636;28;20090;-59
2022/09/22 09:07:36;;;;;;;6.63;2.00;;;;;;;16.16;51.25;100610.00;5114500;28;20083;-60
2022/09/22 09:10:21;;;;;;;5.82;2.10;;;;;;;16.23;50.48;100608.59;5114260;28;20363;-59
2022/09/22 09:13:02;;;;;;;3.42;1.95;;;;;;;16.25;50.75;100601.41;5114561;28;20085;-60
2022/09/22 09:15:51;;;;;;;5.18;1.95;;;;;;;16.32;50.60;100609.81;5114507;28;20048;-61
2022/09/22 09:18:25;;;;;;;4.90;1.77;;;;;;;16.40;50.58;100615.44;5114117;28;20131;-59
2022/09/22 09:20:53;;;;;;;2.92;1.83;;;;;;;16.48;50.92;100612.25;5112757;28;20056;-58
2022/09/22 09:23:28;;;;;;;4.03;1.88;;;;;;;16.53;50.37;100615.44;5114339;28;20047;-59
2022/09/22 09:26:17;;;;;;;2.63;1.58;;;;;;;16.61;50.30;100604.31;5114375;28;20054;-60
2022/09/22 09:28:49;;;;;;;6.80;1.85;;;;;;;16.66;50.26;100604.84;5113970;28;20499;-59
2022/09/22 09:31:34;;;;;;;4.27;1.43;;;;;;;16.71;50.35;100601.00;5113803;28;20079;-59
2022/09/22 09:34:07;;;;;;;2.83;1.60;;;;;;;16.79;49.81;100596.84;5114066;28;20058;-60
2022/09/22 09:36:41;;;;;;;4.43;1.70;;;;;;;16.88;49.76;100597.16;5112800;28;20426;-60
2022/09/22 09:39:19;;;;;;;5.10;1.55;;;;;;;16.93;49.29;100593.22;5113099;28;20051;-60
2022/09/22 09:41:48;;;;;;;5.40;1.50;;;;;;;17.03;49.42;100600.56;5113645;28;20440;-60
2022/09/22 09:44:26;;;;;;;6.88;1.65;;;;;;;17.08;49.20;100589.63;5113597;28;20077;-60
2022/09/22 09:47:16;;;;;;;3.53;1.63;;;;;;;17.15;49.26;100593.53;5113731;28;20154;-69
2022/09/22 09:49:42;;;;;;;3.35;1.42;;;;;;;17.29;49.44;100588.09;5113288;28;20507;-59
2022/09/22 09:52:11;;;;;;;4.95;1.60;;;;;;;17.35;49.11;100589.47;5113407;28;20101;-60
2022/09/22 09:54:42;;;;;;;3.58;1.58;;;;;;;17.44;49.21;100594.13;5111106;28;20095;-60
2022/09/22 09:57:13;;;;;;;3.58;1.60;;;;;;;17.54;48.98;100594.25;5110585;28;20101;-60
2022/09/22 10:02:30;;;;;;;2.13;1.23;;;;;;;17.76;48.89;100590.03;5111458;28;20051;-61
2022/09/22 10:05:15;;;;;;;5.97;1.65;;;;;;;17.85;48.73;100585.84;5110516;28;20112;-61
2022/09/22 10:07:44;;;;;;;4.82;1.67;;;;;;;18.00;49.21;100583.84;5111780;28;20465;-60
2022/09/22 10:10:27;;;;;;;1.63;1.10;;;;;;;18.13;48.39;100574.94;5111414;28;20488;-59
2022/09/22 10:13:31;;;;;;;3.60;1.52;;;;;;;18.27;48.74;100580.06;5111174;28;20100;-61
2022/09/22 10:16:06;;;;;;;3.22;1.35;;;;;;;18.48;47.43;100579.38;5109092;28;20389;-62
2022/09/22 10:18:39;;;;;;;5.72;2.08;;;;;;;18.62;48.18;100568.50;5112905;28;20138;-60
2022/09/22 10:21:18;;;;;;;2.25;1.60;;;;;;;18.77;47.39;100562.06;5111554;28;20230;-59
2022/09/22 10:23:52;;;;;;;3.28;1.38;;;;;;;18.93;48.08;100565.22;5112095;28;20090;-60
2022/09/22 10:26:28;;;;;;;2.65;1.10;;;;;;;19.08;47.10;100571.19;5112762;28;20043;-60
2022/09/22 10:29:19;;;;;;;1.38;1.00;;;;;;;19.24;46.22;100572.59;5112658;28;20494;-60
2022/09/22 10:32:04;;;;;;;2.90;1.15;;;;;;;19.37;45.39;100567.13;5111489;28;20059;-60
2022/09/22 10:34:39;;;;;;;2.38;1.13;;;;;;;19.53;45.89;100572.06;5112855;28;20044;-59
2022/09/22 10:37:11;;;;;;;2.42;1.08;;;;;;;19.63;45.35;100562.31;5110544;28;20051;-60
2022/09/22 10:39:43;;;;;;;2.58;1.30;;;;;;;19.74;45.86;100564.09;5110338;28;20081;-60
2022/09/22 10:42:31;;;;;;;1.77;1.08;;;;;;;19.86;46.76;100569.41;5109641;28;20051;-59
2022/09/22 10:45:02;;;;;;;2.47;1.10;;;;;;;20.02;45.87;100560.97;5112789;28;20087;-60
2022/09/22 10:47:56;;;;;;;5.18;1.17;;;;;;;20.14;44.79;100554.59;5112321;28;20051;-62
2022/09/22 10:50:41;;;;;;;;;;;;;;;20.29;45.70;100559.59;5112130;28;20048;-59
2022/09/22 10:53:28;;;;;;;3.03;0.95;;;;;;;20.44;44.72;100560.97;5112020;28;19920;-59
2022/09/22 10:56:11;;;;;;;2.20;1.10;;;;;;;20.56;43.68;100553.69;5112382;28;20091;-61
2022/09/22 10:59:20;;;;;;;2.80;0.88;;;;;;;20.69;44.88;100552.63;5111939;28;20518;-60
2022/09/22 11:02:33;;;;;;;1.70;1.38;;;;;;;20.87;43.12;100555.56;5112581;28;20112;-59
2022/09/22 11:14:24;;;;;;;2.95;1.23;;;;;;;22.77;43.86;100532.91;5112135;28;20063;-59
2022/09/22 11:17:02;;;;;;;2.20;1.35;;;;;;;23.52;44.76;100541.00;5111905;28;20480;-59
2022/09/22 11:19:48;;;;;;;1.70;0.88;;;;;;;24.33;44.68;100541.81;5110188;28;20086;-59
2022/09/22 11:23:02;;;;;;;2.88;1.15;;;;;;;25.24;40.90;100540.53;5111805;28;20096;-59
2022/09/22 11:25:47;;;;;;;1.83;1.10;;;;;;;26.17;37.76;100542.25;5056196;28;20091;-60
2022/09/22 11:28:44;;;;;;;4.57;1.20;;;;;;;26.87;38.84;100537.19;5110415;28;20477;-60
2022/09/22 11:31:40;;;;;;;3.85;1.70;;;;;;;27.51;36.65;100538.00;5110130;28;20089;-60
2022/09/22 11:34:41;;;;;;;2.15;1.17;;;;;;;28.14;35.59;100535.09;5079530;28;20138;-66
2022/09/22 11:37:26;;;;;;;1.88;1.05;;;;;;;28.79;36.83;100528.31;5110108;28;20511;-60
2022/09/22 11:40:17;;;;;;;1.88;1.35;;;;;;;29.35;34.09;100525.03;5110757;28;20491;-60
2022/09/22 11:43:02;;;;;;;2.78;1.23;;;;;;;29.91;34.80;100519.88;5111188;28;20051;-62
2022/09/22 11:46:21;;;;;;;3.17;1.08;;;;;;;30.43;35.25;100517.72;5111717;27;20130;-61
2022/09/22 11:49:00;;;;;;;1.50;0.70;;;;;;;31.02;31.39;100511.09;5055600;28;20057;-60
2022/09/22 11:52:05;;;;;;;2.25;1.02;;;;;;;31.45;31.85;100513.50;5111254;28;20104;-61
2022/09/22 11:54:44;;;;;;;1.45;0.90;;;;;;;31.89;30.72;100501.38;5111139;28;20083;-60
2022/09/22 11:57:16;;;;;;;2.75;0.98;;;;;;;32.20;28.53;100497.13;5110359;28;20075;-61
2022/09/22 12:00:10;;;;;;;1.42;1.00;;;;;;;32.45;30.23;100491.00;5110633;28;20094;-61
2022/09/22 12:02:45;;;;;;;1.67;1.10;;;;;;;32.71;27.80;100484.63;5110747;28;20044;-61
2022/09/22 12:05:19;;;;;;;2.55;0.98;;;;;;;32.88;28.08;100482.19;5111024;28;20078;-60
2022/09/22 12:07:54;;;;;;;1.52;0.80;;;;;;;32.98;27.75;100486.34;5110188;28;20138;-60